PWSweather.com
Personal Weather Stations
Station Observations
ME1989
Sicily, Barcellona Pozzo Di GottoIT

SicilyBarcellona Pozzo Di GottoIT

Lat: 38.1487398, Lon: 15.2113962

Elevation: 131

Station Type: Peet Bros

Latest ConditionsUpdated 3:10:04 PM GMT+01:01 Thursday, Jan 29, 2015
Currently Today's Max Today's Min Today's Average
Temperature 53.8°F12.1°C 54.8°F12.7°C 47.4°F8.6°C 52.0°F11.1°C
Dew Point 41.0°F5.0°C 44.2°F6.8°C 37.7°F3.2°C 41.9°F5.5°C
Winds 11.6 mph WNW18.7 kmh WNW 16.0 mph NNW25.7 kmh NNW - 10.2 mph 16.4 kmh
Wind Gusts 14.8 mph23.8 kmh 25.2 mph40.6 kmh - -
Humidity 62% 88% 54% 69%
Pressure 29.83 in1010.2 mb 29.88 in1011.9 mb 29.78 in1008.5 mb -
Precipitation - 0.06 in1.5 mm - -
Hour Temp Dew Point Humidity Winds Wind Gusts Pressure Precip Precip Rate Daily Precip Total
03:10 PM 53.8°F12.1°C 41.0°F5.0°C 62% 11.6 mph WNW18.7 kmh WNW 14.8 mph23.8 kmh 29.83 in1010.2 mb 0.00 in0.0 mm 0.00 in/hr0.0 mm/hr 0.06 in1.5 mm
03:00 PM 54.1°F12.3°C 41.4°F5.2°C 62% 11.9 mph W19.2 kmh W 17.0 mph27.4 kmh 29.82 in1009.8 mb 0.00 in0.0 mm 0.00 in/hr0.0 mm/hr 0.06 in1.5 mm
02:50 PM 53.5°F11.9°C 40.8°F4.9°C 62% 9.0 mph WNW14.5 kmh WNW 9.2 mph14.8 kmh 29.82 in1009.8 mb 0.00 in0.0 mm 0.00 in/hr0.0 mm/hr 0.06 in1.5 mm
02:40 PM 53.6°F12.0°C 40.5°F4.7°C 61% 10.3 mph W16.6 kmh W 14.9 mph24.0 kmh 29.82 in1009.8 mb 0.00 in0.0 mm 0.00 in/hr0.0 mm/hr 0.06 in1.5 mm
02:30 PM 53.5°F11.9°C 40.0°F4.4°C 60% 12.2 mph W19.6 kmh W 14.9 mph24.0 kmh 29.82 in1009.8 mb 0.00 in0.0 mm 0.00 in/hr0.0 mm/hr 0.06 in1.5 mm
02:20 PM 53.9°F12.2°C 40.7°F4.8°C 61% 9.5 mph WNW15.3 kmh WNW 11.6 mph18.7 kmh 29.82 in1009.8 mb 0.00 in0.0 mm 0.00 in/hr0.0 mm/hr 0.06 in1.5 mm
02:10 PM 54.2°F12.3°C 41.0°F5.0°C 61% 13.3 mph WSW21.4 kmh WSW 18.0 mph29.0 kmh 29.82 in1009.8 mb 0.00 in0.0 mm 0.00 in/hr0.0 mm/hr 0.06 in1.5 mm
02:00 PM 54.2°F12.3°C 41.5°F5.3°C 62% 11.4 mph W18.3 kmh W 16.8 mph27.0 kmh 29.82 in1009.8 mb 0.00 in0.0 mm 0.00 in/hr0.0 mm/hr 0.06 in1.5 mm
01:50 PM 53.6°F12.0°C 41.3°F5.2°C 63% 12.9 mph WSW20.8 kmh WSW 20.4 mph32.8 kmh 29.83 in1010.2 mb 0.00 in0.0 mm 0.00 in/hr0.0 mm/hr 0.06 in1.5 mm
01:40 PM 53.9°F12.2°C 42.0°F5.6°C 64% 11.0 mph W17.7 kmh W 13.2 mph21.2 kmh 29.84 in1010.5 mb 0.00 in0.0 mm 0.00 in/hr0.0 mm/hr 0.06 in1.5 mm
01:30 PM 53.9°F12.2°C 42.4°F5.8°C 65% 10.2 mph WNW16.4 kmh WNW 11.0 mph17.7 kmh 29.84 in1010.5 mb 0.00 in0.0 mm 0.00 in/hr0.0 mm/hr 0.06 in1.5 mm
01:20 PM 53.8°F12.1°C 42.4°F5.8°C 65% 12.0 mph WNW19.3 kmh WNW 21.2 mph34.1 kmh 29.84 in1010.5 mb 0.00 in0.0 mm 0.00 in/hr0.0 mm/hr 0.06 in1.5 mm
01:10 PM 54.8°F12.7°C 43.2°F6.2°C 65% 10.1 mph WNW16.3 kmh WNW 15.0 mph24.1 kmh 29.84 in1010.5 mb 0.00 in0.0 mm 0.00 in/hr0.0 mm/hr 0.06 in1.5 mm
01:00 PM 53.8°F12.1°C 42.7°F5.9°C 66% 10.5 mph W16.9 kmh W 13.4 mph21.6 kmh 29.85 in1010.8 mb 0.00 in0.0 mm 0.00 in/hr0.0 mm/hr 0.06 in1.5 mm
12:50 PM 53.7°F12.1°C 42.6°F5.9°C 66% 10.1 mph WNW16.3 kmh WNW 14.4 mph23.2 kmh 29.85 in1010.8 mb 0.00 in0.0 mm 0.00 in/hr0.0 mm/hr 0.06 in1.5 mm
12:40 PM 54.2°F12.3°C 43.0°F6.1°C 66% 11.1 mph WNW17.9 kmh WNW 17.2 mph27.7 kmh 29.85 in1010.8 mb 0.00 in0.0 mm 0.00 in/hr0.0 mm/hr 0.06 in1.5 mm
12:30 PM 53.7°F12.1°C 42.6°F5.9°C 66% 11.8 mph WNW19.0 kmh WNW 15.9 mph25.6 kmh 29.85 in1010.8 mb 0.00 in0.0 mm 0.00 in/hr0.0 mm/hr 0.06 in1.5 mm
12:20 PM 53.6°F12.0°C 42.5°F5.8°C 66% 10.4 mph WNW16.7 kmh WNW 13.2 mph21.2 kmh 29.86 in1011.2 mb 0.00 in0.0 mm 0.00 in/hr0.0 mm/hr 0.06 in1.5 mm
12:10 PM 54.2°F12.3°C 43.9°F6.6°C 68% 5.9 mph WNW9.5 kmh WNW 9.0 mph14.5 kmh 29.85 in1010.8 mb 0.00 in0.0 mm 0.00 in/hr0.0 mm/hr 0.06 in1.5 mm
12:00 PM 53.8°F12.1°C 43.1°F6.2°C 67% 9.9 mph WNW15.9 kmh WNW 12.6 mph20.3 kmh 29.86 in1011.2 mb 0.00 in0.0 mm 0.00 in/hr0.0 mm/hr 0.06 in1.5 mm
11:50 AM 54.2°F12.3°C 41.8°F5.4°C 63% 8.6 mph W13.8 kmh W 11.7 mph18.8 kmh 29.86 in1011.2 mb 0.00 in0.0 mm 0.00 in/hr0.0 mm/hr 0.06 in1.5 mm
11:40 AM 54.3°F12.4°C 40.3°F4.6°C 59% 8.1 mph W13.0 kmh W 8.5 mph13.7 kmh 29.86 in1011.2 mb 0.00 in0.0 mm 0.00 in/hr0.0 mm/hr 0.06 in1.5 mm
11:30 AM 54.0°F12.2°C 40.0°F4.4°C 59% 8.8 mph WNW14.2 kmh WNW 11.1 mph17.9 kmh 29.87 in1011.5 mb 0.00 in0.0 mm 0.00 in/hr0.0 mm/hr 0.06 in1.5 mm
11:20 AM 54.4°F12.4°C 39.5°F4.2°C 57% 6.7 mph W10.8 kmh W 11.9 mph19.2 kmh 29.88 in1011.9 mb 0.00 in0.0 mm 0.00 in/hr0.0 mm/hr 0.06 in1.5 mm
11:10 AM 54.4°F12.4°C 38.1°F3.4°C 54% 10.5 mph WNW16.9 kmh WNW 11.9 mph19.2 kmh 29.88 in1011.9 mb 0.00 in0.0 mm 0.00 in/hr0.0 mm/hr 0.06 in1.5 mm
11:00 AM 54.6°F12.6°C 39.3°F4.1°C 56% 9.5 mph NW15.3 kmh NW 14.7 mph23.7 kmh 29.88 in1011.9 mb 0.00 in0.0 mm 0.00 in/hr0.0 mm/hr 0.06 in1.5 mm
10:50 AM 54.0°F12.2°C 37.7°F3.2°C 54% 13.6 mph NW21.9 kmh NW 16.0 mph25.7 kmh 29.88 in1011.9 mb 0.00 in0.0 mm 0.00 in/hr0.0 mm/hr 0.06 in1.5 mm
10:40 AM 54.5°F12.5°C 39.6°F4.2°C 57% 8.9 mph NW14.3 kmh NW 11.4 mph18.3 kmh 29.88 in1011.9 mb 0.00 in0.0 mm 0.00 in/hr0.0 mm/hr 0.06 in1.5 mm
10:30 AM 53.5°F11.9°C 40.0°F4.4°C 60% 7.3 mph NW11.7 kmh NW 10.1 mph16.3 kmh 29.88 in1011.9 mb 0.00 in0.0 mm 0.00 in/hr0.0 mm/hr 0.06 in1.5 mm
10:20 AM 53.5°F11.9°C 41.2°F5.1°C 63% 8.5 mph WNW13.7 kmh WNW 9.7 mph15.6 kmh 29.88 in1011.9 mb 0.00 in0.0 mm 0.00 in/hr0.0 mm/hr 0.06 in1.5 mm
10:10 AM 53.3°F11.8°C 41.0°F5.0°C 63% 8.3 mph NW13.4 kmh NW 9.2 mph14.8 kmh 29.88 in1011.9 mb 0.00 in0.0 mm 0.00 in/hr0.0 mm/hr 0.06 in1.5 mm
10:00 AM 53.1°F11.7°C 40.5°F4.7°C 62% 11.7 mph WNW18.8 kmh WNW 15.0 mph24.1 kmh 29.88 in1011.9 mb 0.00 in0.0 mm 0.00 in/hr0.0 mm/hr 0.06 in1.5 mm
09:50 AM 53.1°F11.7°C 40.4°F4.7°C 62% 9.4 mph WNW15.1 kmh WNW 11.6 mph18.7 kmh 29.87 in1011.5 mb 0.00 in0.0 mm 0.00 in/hr0.0 mm/hr 0.06 in1.5 mm
09:40 AM 53.0°F11.7°C 41.1°F5.1°C 64% 11.0 mph NW17.7 kmh NW 15.3 mph24.6 kmh 29.87 in1011.5 mb 0.00 in0.0 mm 0.00 in/hr0.0 mm/hr 0.06 in1.5 mm
09:30 AM 53.2°F11.8°C 41.3°F5.2°C 64% 7.8 mph NW12.6 kmh NW 10.2 mph16.4 kmh 29.87 in1011.5 mb 0.00 in0.0 mm 0.00 in/hr0.0 mm/hr 0.06 in1.5 mm
09:20 AM 53.1°F11.7°C 41.3°F5.2°C 64% 11.2 mph NW18.0 kmh NW 14.4 mph23.2 kmh 29.87 in1011.5 mb 0.00 in0.0 mm 0.00 in/hr0.0 mm/hr 0.06 in1.5 mm
09:10 AM 53.0°F11.7°C 41.9°F5.5°C 66% 8.7 mph NW14.0 kmh NW 11.6 mph18.7 kmh 29.86 in1011.2 mb 0.00 in0.0 mm 0.00 in/hr0.0 mm/hr 0.06 in1.5 mm
09:00 AM 52.8°F11.6°C 41.4°F5.2°C 65% 8.9 mph NW14.3 kmh NW 10.8 mph17.4 kmh 29.87 in1011.5 mb 0.00 in0.0 mm 0.00 in/hr0.0 mm/hr 0.06 in1.5 mm
08:50 AM 52.8°F11.6°C 41.7°F5.4°C 66% 8.2 mph NW13.2 kmh NW 11.9 mph19.2 kmh 29.86 in1011.2 mb 0.00 in0.0 mm 0.00 in/hr0.0 mm/hr 0.06 in1.5 mm
08:40 AM 52.7°F11.5°C 42.1°F5.6°C 67% 7.6 mph NW12.2 kmh NW 11.2 mph18.0 kmh 29.86 in1011.2 mb 0.00 in0.0 mm 0.00 in/hr0.0 mm/hr 0.06 in1.5 mm
08:30 AM 52.6°F11.4°C 42.0°F5.6°C 67% 7.6 mph NNW12.2 kmh NNW 11.0 mph17.7 kmh 29.86 in1011.2 mb 0.00 in0.0 mm 0.00 in/hr0.0 mm/hr 0.06 in1.5 mm
08:20 AM 52.5°F11.4°C 41.9°F5.5°C 67% 8.1 mph NW13.0 kmh NW 11.7 mph18.8 kmh 29.86 in1011.2 mb 0.00 in0.0 mm 0.00 in/hr0.0 mm/hr 0.06 in1.5 mm
08:10 AM 52.6°F11.4°C 41.6°F5.3°C 66% 8.7 mph NW14.0 kmh NW 9.1 mph14.6 kmh 29.86 in1011.2 mb 0.00 in0.0 mm 0.00 in/hr0.0 mm/hr 0.06 in1.5 mm
08:00 AM 52.2°F11.2°C 40.8°F4.9°C 65% 13.1 mph NW21.1 kmh NW 17.4 mph28.0 kmh 29.86 in1011.2 mb 0.00 in0.0 mm 0.00 in/hr0.0 mm/hr 0.06 in1.5 mm
07:50 AM 52.2°F11.2°C 41.2°F5.1°C 66% 12.1 mph NW19.5 kmh NW 16.3 mph26.2 kmh 29.85 in1010.8 mb 0.00 in0.0 mm 0.00 in/hr0.0 mm/hr 0.06 in1.5 mm
07:40 AM 52.0°F11.1°C 42.9°F6.1°C 71% 10.7 mph NW17.2 kmh NW 13.0 mph20.9 kmh 29.86 in1011.2 mb 0.00 in0.0 mm 0.00 in/hr0.0 mm/hr 0.06 in1.5 mm
07:30 AM 51.9°F11.1°C 41.3°F5.2°C 67% 11.9 mph NW19.2 kmh NW 16.2 mph26.1 kmh 29.85 in1010.8 mb 0.00 in0.0 mm 0.00 in/hr0.0 mm/hr 0.06 in1.5 mm
07:20 AM 51.7°F10.9°C 41.9°F5.5°C 69% 11.1 mph NW17.9 kmh NW 16.5 mph26.6 kmh 29.84 in1010.5 mb 0.00 in0.0 mm 0.00 in/hr0.0 mm/hr 0.06 in1.5 mm
07:10 AM 51.5°F10.8°C 40.5°F4.7°C 66% 11.8 mph NW19.0 kmh NW 16.7 mph26.9 kmh 29.83 in1010.2 mb 0.00 in0.0 mm 0.00 in/hr0.0 mm/hr 0.06 in1.5 mm
07:00 AM 51.3°F10.7°C 41.4°F5.2°C 69% 10.0 mph NW16.1 kmh NW 13.7 mph22.0 kmh 29.83 in1010.2 mb 0.00 in0.0 mm 0.00 in/hr0.0 mm/hr 0.06 in1.5 mm
06:50 AM 51.3°F10.7°C 41.5°F5.3°C 69% 9.1 mph WNW14.6 kmh WNW 12.5 mph20.1 kmh 29.83 in1010.2 mb 0.00 in0.0 mm 0.00 in/hr0.0 mm/hr 0.06 in1.5 mm
06:40 AM 51.1°F10.6°C 40.9°F4.9°C 68% 11.6 mph NW18.7 kmh NW 16.5 mph26.6 kmh 29.83 in1010.2 mb 0.00 in0.0 mm 0.00 in/hr0.0 mm/hr 0.06 in1.5 mm
06:30 AM 51.0°F10.6°C 41.2°F5.1°C 69% 12.0 mph NW19.3 kmh NW 13.7 mph22.0 kmh 29.82 in1009.8 mb 0.00 in0.0 mm 0.00 in/hr0.0 mm/hr 0.06 in1.5 mm
06:20 AM 50.8°F10.4°C 41.7°F5.4°C 71% 9.8 mph NW15.8 kmh NW 12.1 mph19.5 kmh 29.82 in1009.8 mb 0.00 in0.0 mm 0.00 in/hr0.0 mm/hr 0.06 in1.5 mm
06:10 AM 50.8°F10.4°C 41.8°F5.4°C 71% 8.9 mph NW14.3 kmh NW 12.4 mph20.0 kmh 29.82 in1009.8 mb 0.00 in0.0 mm 0.00 in/hr0.0 mm/hr 0.06 in1.5 mm
06:00 AM 50.9°F10.5°C 41.8°F5.4°C 71% 10.2 mph WNW16.4 kmh WNW 15.5 mph24.9 kmh 29.82 in1009.8 mb 0.00 in0.0 mm 0.00 in/hr0.0 mm/hr 0.06 in1.5 mm
05:50 AM 50.9°F10.5°C 41.5°F5.3°C 70% 10.0 mph NW16.1 kmh NW 11.8 mph19.0 kmh 29.81 in1009.5 mb 0.00 in0.0 mm 0.00 in/hr0.0 mm/hr 0.06 in1.5 mm
05:40 AM 51.0°F10.6°C 42.3°F5.7°C 72% 8.4 mph NW13.5 kmh NW 9.4 mph15.1 kmh 29.81 in1009.5 mb 0.00 in0.0 mm 0.00 in/hr0.0 mm/hr 0.06 in1.5 mm
05:30 AM 51.1°F10.6°C 42.4°F5.8°C 72% 10.6 mph WNW17.1 kmh WNW 13.4 mph21.6 kmh 29.80 in1009.1 mb 0.00 in0.0 mm 0.00 in/hr0.0 mm/hr 0.06 in1.5 mm
05:20 AM 51.1°F10.6°C 42.4°F5.8°C 72% 10.5 mph WNW16.9 kmh WNW 13.6 mph21.9 kmh 29.80 in1009.1 mb 0.00 in0.0 mm 0.00 in/hr0.0 mm/hr 0.06 in1.5 mm
05:10 AM 51.1°F10.6°C 42.3°F5.7°C 72% 9.1 mph NW14.6 kmh NW 11.9 mph19.2 kmh 29.80 in1009.1 mb 0.00 in0.0 mm 0.00 in/hr0.0 mm/hr 0.06 in1.5 mm
05:00 AM 51.3°F10.7°C 42.9°F6.1°C 73% 9.6 mph NW15.4 kmh NW 12.1 mph19.5 kmh 29.80 in1009.1 mb 0.00 in0.0 mm 0.00 in/hr0.0 mm/hr 0.06 in1.5 mm
04:50 AM 51.2°F10.7°C 42.5°F5.8°C 72% 14.2 mph NW22.9 kmh NW 19.8 mph31.9 kmh 29.80 in1009.1 mb 0.00 in0.0 mm 0.00 in/hr0.0 mm/hr 0.06 in1.5 mm
04:40 AM 51.4°F10.8°C 42.6°F5.9°C 72% 10.0 mph NNW16.1 kmh NNW 13.9 mph22.4 kmh 29.80 in1009.1 mb 0.00 in0.0 mm 0.00 in/hr0.0 mm/hr 0.06 in1.5 mm
04:30 AM 51.4°F10.8°C 42.3°F5.7°C 71% 11.3 mph NW18.2 kmh NW 13.5 mph21.7 kmh 29.80 in1009.1 mb 0.00 in0.0 mm 0.00 in/hr0.0 mm/hr 0.06 in1.5 mm
04:20 AM 51.4°F10.8°C 42.6°F5.9°C 72% 6.9 mph N11.1 kmh N 9.1 mph14.6 kmh 29.80 in1009.1 mb 0.00 in0.0 mm 0.00 in/hr0.0 mm/hr 0.06 in1.5 mm
04:10 AM 51.4°F10.8°C 42.7°F5.9°C 72% 8.2 mph NNW13.2 kmh NNW 11.7 mph18.8 kmh 29.80 in1009.1 mb 0.00 in0.0 mm 0.00 in/hr0.0 mm/hr 0.06 in1.5 mm
04:00 AM 51.4°F10.8°C 42.4°F5.8°C 71% 10.5 mph NNW16.9 kmh NNW 15.0 mph24.1 kmh 29.80 in1009.1 mb 0.00 in0.0 mm 0.00 in/hr0.0 mm/hr 0.06 in1.5 mm
03:50 AM 51.4°F10.8°C 41.9°F5.5°C 70% 11.5 mph NNW18.5 kmh NNW 15.8 mph25.4 kmh 29.80 in1009.1 mb 0.00 in0.0 mm 0.00 in/hr0.0 mm/hr 0.06 in1.5 mm
03:40 AM 51.3°F10.7°C 41.5°F5.3°C 69% 8.8 mph N14.2 kmh N 12.7 mph20.4 kmh 29.80 in1009.1 mb 0.00 in0.0 mm 0.00 in/hr0.0 mm/hr 0.06 in1.5 mm
03:30 AM 51.3°F10.7°C 41.9°F5.5°C 70% 10.7 mph NNW17.2 kmh NNW 14.4 mph23.2 kmh 29.80 in1009.1 mb 0.00 in0.0 mm 0.00 in/hr0.0 mm/hr 0.06 in1.5 mm
03:20 AM 51.1°F10.6°C 41.3°F5.2°C 69% 11.6 mph NW18.7 kmh NW 15.6 mph25.1 kmh 29.80 in1009.1 mb 0.00 in0.0 mm 0.00 in/hr0.0 mm/hr 0.06 in1.5 mm
03:10 AM 51.2°F10.7°C 41.4°F5.2°C 69% 11.9 mph NNW19.2 kmh NNW 19.3 mph31.1 kmh 29.80 in1009.1 mb 0.00 in0.0 mm 0.00 in/hr0.0 mm/hr 0.06 in1.5 mm
03:00 AM 51.1°F10.6°C 41.3°F5.2°C 69% 11.1 mph NNW17.9 kmh NNW 15.5 mph24.9 kmh 29.80 in1009.1 mb 0.00 in0.0 mm 0.00 in/hr0.0 mm/hr 0.06 in1.5 mm
02:50 AM 51.4°F10.8°C 42.0°F5.6°C 70% 9.9 mph NNW15.9 kmh NNW 11.5 mph18.5 kmh 29.81 in1009.5 mb 0.00 in0.0 mm 0.00 in/hr0.0 mm/hr 0.06 in1.5 mm
02:40 AM 51.2°F10.7°C 41.7°F5.4°C 70% 12.7 mph NW20.4 kmh NW 14.5 mph23.3 kmh 29.80 in1009.1 mb 0.00 in0.0 mm 0.00 in/hr0.0 mm/hr 0.06 in1.5 mm
02:30 AM 51.1°F10.6°C 42.4°F5.8°C 72% 11.6 mph NNW18.7 kmh NNW 14.4 mph23.2 kmh 29.80 in1009.1 mb 0.00 in0.0 mm 0.00 in/hr0.0 mm/hr 0.06 in1.5 mm
02:20 AM 50.9°F10.5°C 42.6°F5.9°C 73% 12.2 mph N19.6 kmh N 18.2 mph29.3 kmh 29.80 in1009.1 mb 0.00 in0.0 mm 0.00 in/hr0.0 mm/hr 0.06 in1.5 mm
02:10 AM 51.1°F10.6°C 43.1°F6.2°C 74% 13.0 mph NNW20.9 kmh NNW 14.9 mph24.0 kmh 29.80 in1009.1 mb 0.00 in0.0 mm 0.00 in/hr0.0 mm/hr 0.06 in1.5 mm
02:00 AM 50.9°F10.5°C 42.9°F6.1°C 74% 14.1 mph NNW22.7 kmh NNW 19.4 mph31.2 kmh 29.80 in1009.1 mb 0.00 in0.0 mm 0.00 in/hr0.0 mm/hr 0.06 in1.5 mm
01:50 AM 50.6°F10.3°C 43.0°F6.1°C 75% 16.0 mph NNW25.7 kmh NNW 25.2 mph40.6 kmh 29.79 in1008.8 mb 0.00 in0.0 mm 0.00 in/hr0.0 mm/hr 0.06 in1.5 mm
01:40 AM 50.3°F10.2°C 43.7°F6.5°C 78% 11.9 mph NNW19.2 kmh NNW 15.7 mph25.3 kmh 29.79 in1008.8 mb 0.00 in0.0 mm 0.00 in/hr0.0 mm/hr 0.06 in1.5 mm
01:30 AM 49.6°F9.8°C 43.7°F6.5°C 80% 11.5 mph WNW18.5 kmh WNW 15.9 mph25.6 kmh 29.79 in1008.8 mb 0.00 in0.0 mm 0.00 in/hr0.0 mm/hr 0.06 in1.5 mm
01:20 AM 48.7°F9.3°C 44.1°F6.7°C 84% 8.5 mph WNW13.7 kmh WNW 12.0 mph19.3 kmh 29.79 in1008.8 mb 0.00 in0.0 mm 0.00 in/hr0.0 mm/hr 0.06 in1.5 mm
01:10 AM 48.8°F9.3°C 44.2°F6.8°C 84% 10.0 mph NW16.1 kmh NW 16.7 mph26.9 kmh 29.79 in1008.8 mb 0.01 in0.3 mm 0.06 in/hr1.5 mm/hr 0.06 in1.5 mm
01:00 AM 48.7°F9.3°C 44.1°F6.7°C 84% 15.3 mph NW24.6 kmh NW 16.9 mph27.2 kmh 29.79 in1008.8 mb 0.00 in0.0 mm 0.00 in/hr0.0 mm/hr 0.05 in1.3 mm
12:50 AM 48.5°F9.2°C 44.2°F6.8°C 85% 14.8 mph NW23.8 kmh NW 22.6 mph36.4 kmh 29.79 in1008.8 mb 0.01 in0.3 mm 0.06 in/hr1.5 mm/hr 0.05 in1.3 mm
12:40 AM 48.4°F9.1°C 43.8°F6.6°C 84% 4.4 mph N7.1 kmh N 5.8 mph9.3 kmh 29.78 in1008.5 mb 0.01 in0.3 mm 0.06 in/hr1.5 mm/hr 0.04 in1.0 mm
12:30 AM 47.4°F8.6°C 42.8°F6.0°C 84% 12.1 mph N19.5 kmh N 17.6 mph28.3 kmh 29.78 in1008.5 mb 0.02 in0.5 mm 0.12 in/hr3.0 mm/hr 0.03 in0.8 mm
12:20 AM 47.6°F8.7°C 43.9°F6.6°C 87% 5.4 mph NE8.7 kmh NE 10.4 mph16.7 kmh 29.78 in1008.5 mb 0.01 in0.3 mm 0.06 in/hr1.5 mm/hr 0.02 in0.5 mm
12:10 AM 47.9°F8.8°C 44.2°F6.8°C 87% Calm Calm -- 29.78 in1008.5 mb 0.01 in0.3 mm 0.06 in/hr1.5 mm/hr 0.01 in0.3 mm
12:00 AM 47.5°F8.6°C 44.1°F6.7°C 88% 6.1 mph NNE9.8 kmh NNE 8.6 mph13.8 kmh 29.78 in1008.5 mb 0.00 in0.0 mm 0.00 in/hr0.0 mm/hr 0.00 in0.0 mm